createdAt,value
2019-03-31T00:00:00.469Z,7.97
2019-03-31T00:01:58.969Z,7.20
2019-03-31T00:03:31.754Z,7.65
2019-03-31T00:05:04.529Z,7.37
2019-03-31T00:06:37.353Z,7.72
2019-03-31T00:08:10.020Z,7.40
2019-03-31T00:09:42.690Z,7.17
2019-03-31T00:11:15.553Z,7.37
2019-03-31T00:12:48.343Z,7.40
2019-03-31T00:14:21.144Z,7.35
2019-03-31T00:15:53.872Z,7.78
2019-03-31T00:17:26.720Z,7.65
2019-03-31T00:18:59.367Z,7.85
2019-03-31T00:20:32.166Z,7.70
2019-03-31T00:22:04.959Z,7.40
2019-03-31T00:23:37.759Z,7.50
2019-03-31T00:25:10.436Z,7.28
2019-03-31T00:26:43.237Z,7.40
2019-03-31T00:28:16.767Z,7.60
2019-03-31T00:29:49.556Z,7.97
2019-03-31T00:31:22.846Z,7.47
2019-03-31T00:32:55.716Z,7.67
2019-03-31T00:34:28.557Z,7.40
2019-03-31T00:36:01.350Z,7.50
2019-03-31T00:37:34.074Z,6.90
2019-03-31T00:39:07.882Z,7.53
2019-03-31T00:40:40.705Z,7.97
2019-03-31T00:42:13.507Z,7.67
2019-03-31T00:43:46.235Z,7.92
2019-03-31T00:45:19.025Z,8.30
2019-03-31T00:46:51.692Z,8.05
2019-03-31T00:48:24.393Z,7.17
2019-03-31T00:49:57.019Z,8.10
2019-03-31T00:51:29.691Z,8.03
2019-03-31T00:53:02.519Z,7.87
2019-03-31T00:54:35.171Z,7.83
2019-03-31T00:56:07.966Z,8.30
2019-03-31T00:57:40.756Z,8.28
2019-03-31T00:59:13.571Z,8.40
2019-03-31T01:01:04.578Z,8.48
2019-03-31T01:02:37.616Z,7.97
2019-03-31T01:04:10.491Z,8.75
2019-03-31T01:05:43.573Z,8.40
2019-03-31T01:07:16.289Z,8.65
2019-03-31T01:08:49.406Z,7.97
2019-03-31T01:10:22.829Z,8.03
2019-03-31T01:11:55.810Z,8.65
2019-03-31T01:13:28.565Z,8.70
2019-03-31T01:15:03.109Z,8.93
2019-03-31T01:16:36.014Z,8.60
2019-03-31T01:18:09.169Z,8.68
2019-03-31T01:19:42.221Z,8.50
2019-03-31T01:21:15.276Z,8.83
2019-03-31T01:22:48.064Z,8.25
2019-03-31T01:24:20.840Z,8.95
2019-03-31T01:25:53.478Z,8.55
2019-03-31T01:27:26.457Z,8.93
2019-03-31T01:28:59.589Z,9.25
2019-03-31T01:30:32.421Z,9.65
2019-03-31T01:32:05.258Z,8.80
2019-03-31T01:33:38.152Z,9.28
2019-03-31T01:35:11.824Z,9.23
2019-03-31T01:36:44.717Z,9.03
2019-03-31T01:38:18.104Z,8.58
2019-03-31T01:39:50.950Z,8.83
2019-03-31T01:41:23.675Z,9.28
2019-03-31T01:42:56.443Z,8.83
2019-03-31T01:44:29.217Z,9.08
2019-03-31T01:46:02.097Z,9.35
2019-03-31T01:47:35.114Z,9.68
2019-03-31T01:49:07.939Z,8.33
2019-03-31T01:50:40.728Z,9.40
2019-03-31T01:52:13.514Z,9.40
2019-03-31T01:53:46.323Z,9.70
2019-03-31T01:55:19.161Z,8.88
2019-03-31T01:56:51.973Z,9.00
2019-03-31T01:58:24.613Z,8.85
2019-03-31T01:59:57.377Z,8.93
2019-03-31T02:01:30.261Z,9.15
2019-03-31T02:03:03.194Z,9.80
2019-03-31T02:04:35.892Z,9.28
2019-03-31T02:06:08.576Z,9.35
2019-03-31T02:07:41.426Z,8.93
2019-03-31T02:09:14.224Z,9.58
2019-03-31T02:10:47.002Z,9.25
2019-03-31T02:12:20.521Z,9.55
2019-03-31T02:13:53.253Z,8.80
2019-03-31T02:15:26.040Z,9.70
2019-03-31T02:16:58.825Z,8.73
2019-03-31T02:18:31.648Z,9.20
2019-03-31T02:20:05.165Z,9.08
2019-03-31T02:21:38.026Z,9.08
2019-03-31T02:23:10.831Z,8.88
2019-03-31T02:24:43.667Z,8.58
2019-03-31T02:26:16.603Z,8.73
2019-03-31T02:27:49.447Z,8.70
2019-03-31T02:29:22.118Z,8.48
2019-03-31T02:30:54.871Z,8.80
2019-03-31T02:32:27.708Z,8.63
2019-03-31T02:34:00.348Z,8.75
2019-03-31T02:35:33.014Z,8.60
2019-03-31T02:37:05.743Z,8.60
2019-03-31T02:38:38.436Z,8.88
2019-03-31T02:40:11.225Z,8.83
2019-03-31T02:41:44.072Z,8.88
2019-03-31T02:43:16.742Z,9.03
2019-03-31T02:44:49.382Z,8.38
2019-03-31T02:46:22.135Z,9.10
2019-03-31T02:47:54.932Z,9.00
2019-03-31T02:49:27.607Z,9.43
2019-03-31T02:51:00.503Z,9.40
2019-03-31T02:52:33.385Z,10.15
2019-03-31T02:54:06.092Z,9.70
2019-03-31T02:55:38.878Z,10.15
2019-03-31T02:57:11.925Z,9.80
2019-03-31T02:58:45.269Z,9.78
2019-03-31T03:00:17.919Z,9.73
2019-03-31T03:01:51.391Z,9.23
2019-03-31T03:03:25.118Z,9.63
2019-03-31T03:05:18.028Z,8.85
2019-03-31T03:06:38.069Z,9.93
2019-03-31T03:08:13.617Z,10.00
2019-03-31T03:09:48.279Z,10.38
2019-03-31T03:11:21.719Z,10.30
2019-03-31T03:12:58.543Z,9.78
2019-03-31T03:14:36.250Z,9.80
2019-03-31T03:16:19.385Z,9.90
2019-03-31T03:17:52.176Z,9.80
2019-03-31T03:19:24.814Z,9.95
2019-03-31T03:20:57.465Z,10.70
2019-03-31T03:22:30.185Z,10.58
2019-03-31T03:24:02.975Z,10.55
2019-03-31T03:25:36.317Z,10.10
2019-03-31T03:27:09.133Z,9.90
2019-03-31T03:28:42.375Z,9.98
2019-03-31T03:30:15.356Z,10.18
2019-03-31T03:31:48.225Z,10.18
2019-03-31T03:33:21.174Z,10.48
2019-03-31T03:34:53.873Z,10.03
2019-03-31T03:36:26.764Z,10.20
2019-03-31T03:37:59.423Z,9.98
2019-03-31T03:39:32.274Z,10.10
2019-03-31T03:41:05.096Z,10.58
2019-03-31T03:42:37.794Z,10.43
2019-03-31T03:44:10.452Z,11.28
2019-03-31T03:45:43.307Z,10.43
2019-03-31T03:47:16.000Z,9.40
2019-03-31T03:48:48.713Z,10.58
2019-03-31T03:50:21.442Z,10.00
2019-03-31T03:51:54.243Z,11.10
2019-03-31T03:53:27.060Z,10.20
2019-03-31T03:54:59.732Z,10.25
2019-03-31T03:56:32.519Z,10.23
2019-03-31T03:58:05.317Z,10.82
2019-03-31T03:59:38.123Z,11.10
2019-03-31T04:01:21.983Z,11.35
2019-03-31T04:02:54.824Z,11.10
2019-03-31T04:04:27.629Z,10.55
2019-03-31T04:06:00.432Z,11.30
2019-03-31T04:07:33.273Z,11.70
2019-03-31T04:09:06.721Z,11.12
2019-03-31T04:11:23.705Z,11.10
2019-03-31T04:12:56.605Z,11.10
2019-03-31T04:14:29.405Z,11.55
2019-03-31T04:16:02.216Z,10.82
2019-03-31T04:17:35.175Z,10.93
2019-03-31T04:19:08.639Z,10.43
2019-03-31T04:20:41.405Z,11.03
2019-03-31T04:22:14.203Z,10.55
2019-03-31T04:23:46.967Z,10.60
2019-03-31T04:25:19.732Z,10.40
2019-03-31T04:26:52.706Z,11.35
2019-03-31T04:28:25.580Z,10.48
2019-03-31T04:29:58.249Z,10.65
2019-03-31T04:31:31.028Z,10.75
2019-03-31T04:33:03.785Z,11.05
2019-03-31T04:34:36.637Z,11.35
2019-03-31T04:36:09.412Z,10.23
2019-03-31T04:37:42.248Z,10.63
2019-03-31T04:39:15.143Z,9.90
2019-03-31T04:40:47.786Z,10.70
2019-03-31T04:42:20.619Z,10.53
2019-03-31T04:43:53.449Z,10.70
2019-03-31T04:45:26.228Z,10.53
2019-03-31T04:46:58.978Z,10.70
2019-03-31T04:48:31.806Z,10.80
2019-03-31T04:50:04.666Z,10.93
2019-03-31T04:51:37.413Z,10.90
2019-03-31T04:53:10.235Z,9.98
2019-03-31T04:54:43.034Z,10.85
2019-03-31T04:56:15.717Z,10.70
2019-03-31T04:57:48.542Z,10.95
2019-03-31T04:59:21.383Z,10.25
2019-03-31T05:00:54.258Z,10.68
2019-03-31T05:02:27.452Z,10.48
2019-03-31T05:04:04.948Z,10.43
2019-03-31T05:05:35.065Z,10.75
2019-03-31T05:07:07.834Z,10.60
2019-03-31T05:08:40.549Z,10.80
2019-03-31T05:10:13.403Z,11.12
2019-03-31T05:11:46.207Z,11.12
2019-03-31T05:13:18.878Z,10.98
2019-03-31T05:14:51.519Z,10.82
2019-03-31T05:16:24.325Z,10.75
2019-03-31T05:17:57.170Z,10.88
2019-03-31T05:19:29.902Z,11.22
2019-03-31T05:21:02.770Z,11.33
2019-03-31T05:22:35.578Z,11.03
2019-03-31T05:24:08.446Z,10.48
2019-03-31T05:25:41.337Z,11.22
2019-03-31T05:27:14.219Z,11.18
2019-03-31T05:28:47.019Z,11.10
2019-03-31T05:30:19.840Z,10.98
2019-03-31T05:31:52.667Z,10.23
2019-03-31T05:33:25.497Z,10.53
2019-03-31T05:34:58.235Z,10.65
2019-03-31T05:36:30.957Z,10.28
2019-03-31T05:38:03.801Z,10.48
2019-03-31T05:39:36.626Z,10.58
2019-03-31T05:41:09.449Z,10.60
2019-03-31T05:42:42.248Z,10.25
2019-03-31T05:44:15.077Z,11.10
2019-03-31T05:45:47.833Z,10.50
2019-03-31T05:47:20.655Z,11.12
2019-03-31T05:48:53.399Z,10.10
2019-03-31T05:50:26.029Z,10.55
2019-03-31T05:51:58.853Z,9.58
2019-03-31T05:53:31.682Z,10.90
2019-03-31T05:55:04.550Z,10.50
2019-03-31T05:56:37.334Z,9.95
2019-03-31T05:58:09.978Z,10.75
2019-03-31T05:59:42.793Z,10.70
2019-03-31T06:01:15.482Z,10.43
2019-03-31T06:02:48.260Z,10.50
2019-03-31T06:04:32.593Z,10.45
2019-03-31T06:05:55.718Z,10.18
2019-03-31T06:07:28.478Z,10.70
2019-03-31T06:09:01.211Z,10.15
2019-03-31T06:10:33.998Z,10.85
2019-03-31T06:12:06.820Z,10.10
2019-03-31T06:13:39.580Z,10.50
2019-03-31T06:15:12.525Z,11.10
2019-03-31T06:16:45.357Z,10.30
2019-03-31T06:18:18.120Z,10.82
2019-03-31T06:19:50.776Z,10.85
2019-03-31T06:21:23.476Z,11.10
2019-03-31T06:22:56.297Z,10.38
2019-03-31T06:24:29.075Z,10.70
2019-03-31T06:26:01.896Z,10.18
2019-03-31T06:27:34.556Z,10.58
2019-03-31T06:29:07.338Z,10.28
2019-03-31T06:30:40.133Z,10.98
2019-03-31T06:32:12.885Z,10.65
2019-03-31T06:33:45.693Z,10.78
2019-03-31T06:35:18.504Z,10.70
2019-03-31T06:36:51.328Z,10.38
2019-03-31T06:38:24.011Z,11.00
2019-03-31T06:39:56.853Z,10.63
2019-03-31T06:41:29.604Z,10.43
2019-03-31T06:43:02.324Z,11.40
2019-03-31T06:44:38.011Z,10.48
2019-03-31T06:46:09.821Z,10.98
2019-03-31T06:47:42.501Z,10.63
2019-03-31T06:49:15.326Z,10.45
2019-03-31T06:50:48.136Z,11.53
2019-03-31T06:52:20.785Z,11.45
2019-03-31T06:53:53.494Z,10.80
2019-03-31T06:55:26.203Z,11.00
2019-03-31T06:56:59.035Z,11.00
2019-03-31T06:58:31.789Z,10.60
2019-03-31T07:00:06.533Z,10.70
2019-03-31T07:01:39.234Z,10.60
2019-03-31T07:03:12.056Z,10.98
2019-03-31T07:04:44.831Z,10.90
2019-03-31T07:06:17.577Z,10.75
2019-03-31T07:07:50.384Z,10.75
2019-03-31T07:09:23.151Z,10.60
2019-03-31T07:10:55.964Z,10.58
2019-03-31T07:12:28.642Z,10.25
2019-03-31T07:14:01.322Z,10.40
2019-03-31T07:15:34.155Z,10.20
2019-03-31T07:17:06.944Z,10.58
2019-03-31T07:18:39.758Z,11.18
2019-03-31T07:20:14.751Z,10.63
2019-03-31T07:21:47.599Z,11.50
2019-03-31T07:23:20.251Z,11.12
2019-03-31T07:24:53.114Z,10.72
2019-03-31T07:26:26.760Z,11.75
2019-03-31T07:27:59.562Z,10.35
2019-03-31T07:29:32.251Z,10.45
2019-03-31T07:31:05.041Z,10.88
2019-03-31T07:32:41.205Z,10.50
2019-03-31T07:34:14.004Z,11.25
2019-03-31T07:35:46.870Z,11.28
2019-03-31T07:37:19.632Z,11.08
2019-03-31T07:38:52.326Z,11.48
2019-03-31T07:40:25.596Z,10.78
2019-03-31T07:41:58.568Z,11.12
2019-03-31T07:43:31.407Z,11.40
2019-03-31T07:45:04.914Z,11.70
2019-03-31T07:46:37.576Z,11.33
2019-03-31T07:48:10.492Z,11.25
2019-03-31T07:49:43.322Z,11.60
2019-03-31T07:51:16.037Z,11.73
2019-03-31T07:52:48.826Z,12.13
2019-03-31T07:54:21.540Z,12.05
2019-03-31T07:55:54.365Z,11.50
2019-03-31T07:57:27.296Z,11.97
2019-03-31T07:59:00.068Z,11.97
2019-03-31T08:00:32.889Z,11.83
2019-03-31T08:02:05.580Z,12.05
2019-03-31T08:03:38.385Z,11.93
2019-03-31T08:05:11.193Z,12.73
2019-03-31T08:06:44.029Z,11.80
2019-03-31T08:08:16.867Z,11.93
2019-03-31T08:09:49.569Z,12.45
2019-03-31T08:11:22.261Z,11.60
2019-03-31T08:12:55.078Z,12.03
2019-03-31T08:14:27.903Z,12.00
2019-03-31T08:16:00.707Z,11.70
2019-03-31T08:17:33.429Z,12.15
2019-03-31T08:19:06.129Z,12.35
2019-03-31T08:20:38.925Z,12.68
2019-03-31T08:22:11.740Z,12.43
2019-03-31T08:23:44.458Z,12.23
2019-03-31T08:25:17.610Z,12.18
2019-03-31T08:26:50.282Z,12.30
2019-03-31T08:28:24.578Z,12.55
2019-03-31T08:30:00.780Z,12.00
2019-03-31T08:31:32.230Z,12.65
2019-03-31T08:33:05.128Z,12.37
2019-03-31T08:34:38.031Z,12.07
2019-03-31T08:36:10.824Z,12.53
2019-03-31T08:37:43.705Z,12.83
2019-03-31T08:39:16.477Z,13.43
2019-03-31T08:40:49.298Z,13.03
2019-03-31T08:42:22.105Z,12.60
2019-03-31T08:43:54.784Z,12.50
2019-03-31T08:45:32.633Z,12.50
2019-03-31T08:47:06.380Z,12.90
2019-03-31T08:48:39.206Z,12.50
2019-03-31T08:50:12.599Z,12.90
2019-03-31T08:51:45.461Z,12.83
2019-03-31T08:53:18.307Z,13.13
2019-03-31T08:54:51.190Z,13.77
2019-03-31T08:56:23.893Z,12.83
2019-03-31T08:57:56.625Z,14.20
2019-03-31T08:59:33.862Z,14.37
2019-03-31T09:01:14.649Z,14.10
2019-03-31T09:02:47.492Z,14.00
2019-03-31T09:04:22.047Z,14.03
2019-03-31T09:06:01.704Z,15.37
2019-03-31T09:07:29.524Z,14.53
2019-03-31T09:09:03.729Z,15.67
2019-03-31T09:10:45.933Z,15.33
2019-03-31T09:12:18.687Z,15.20
2019-03-31T09:13:51.512Z,15.23
2019-03-31T09:15:24.358Z,15.57
2019-03-31T09:16:57.149Z,14.80
2019-03-31T09:18:29.925Z,14.97
2019-03-31T09:20:03.235Z,15.50
2019-03-31T09:21:36.066Z,15.97
2019-03-31T09:23:08.817Z,16.73
2019-03-31T09:24:41.622Z,16.40
2019-03-31T09:26:14.466Z,14.33
2019-03-31T09:27:47.174Z,15.20
2019-03-31T09:29:19.945Z,15.60
2019-03-31T09:30:52.791Z,15.47
2019-03-31T09:32:25.564Z,15.40
2019-03-31T09:33:58.431Z,14.57
2019-03-31T09:35:31.300Z,14.87
2019-03-31T09:37:04.074Z,15.63
2019-03-31T09:38:36.913Z,14.90
2019-03-31T09:40:10.445Z,15.17
2019-03-31T09:41:43.290Z,14.77
2019-03-31T09:43:16.105Z,15.00
2019-03-31T09:44:48.784Z,15.37
2019-03-31T09:46:21.616Z,15.80
2019-03-31T09:47:54.450Z,15.60
2019-03-31T09:49:27.313Z,14.97
2019-03-31T09:51:00.129Z,14.37
2019-03-31T09:52:32.966Z,14.50
2019-03-31T09:54:05.827Z,13.97
2019-03-31T09:55:38.730Z,14.90
2019-03-31T09:57:11.511Z,14.93
2019-03-31T09:58:44.400Z,15.33
2019-03-31T10:00:18.993Z,15.03
2019-03-31T10:01:51.814Z,15.13
2019-03-31T10:03:24.718Z,14.77
2019-03-31T10:04:57.526Z,15.10
2019-03-31T10:06:30.958Z,15.80
2019-03-31T10:08:03.839Z,15.37
2019-03-31T10:09:37.104Z,15.10
2019-03-31T10:11:09.945Z,16.40
2019-03-31T10:12:42.712Z,15.57
2019-03-31T10:14:15.545Z,16.07
2019-03-31T10:15:48.588Z,15.93
2019-03-31T10:17:21.878Z,14.67
2019-03-31T10:18:54.878Z,16.57
2019-03-31T10:20:31.146Z,16.33
2019-03-31T10:22:05.235Z,17.43
2019-03-31T10:23:38.272Z,16.90
2019-03-31T10:25:13.409Z,15.70
2019-03-31T10:26:48.438Z,15.80
2019-03-31T10:28:21.706Z,16.47
2019-03-31T10:29:54.753Z,14.67
2019-03-31T10:31:27.601Z,14.63
2019-03-31T10:33:00.552Z,15.10
2019-03-31T10:34:33.205Z,15.07
2019-03-31T10:36:06.000Z,15.40
2019-03-31T10:37:38.817Z,15.60
2019-03-31T10:39:11.645Z,15.97
2019-03-31T10:40:44.540Z,14.23
2019-03-31T10:42:17.296Z,15.20
2019-03-31T10:43:50.115Z,15.37
2019-03-31T10:45:22.970Z,15.00
2019-03-31T10:46:58.505Z,14.27
2019-03-31T10:48:30.644Z,13.53
2019-03-31T10:50:04.534Z,13.97
2019-03-31T10:51:37.247Z,14.37
2019-03-31T10:53:17.475Z,14.10
2019-03-31T10:54:50.315Z,14.67
2019-03-31T10:56:23.132Z,15.43
2019-03-31T10:57:56.012Z,14.97
2019-03-31T10:59:28.928Z,14.93
2019-03-31T11:01:01.829Z,14.60
2019-03-31T11:02:34.691Z,13.83
2019-03-31T11:04:07.491Z,14.20
2019-03-31T11:05:40.327Z,14.23
2019-03-31T11:07:13.166Z,14.47
2019-03-31T11:08:47.641Z,14.23
2019-03-31T11:10:20.421Z,13.27
2019-03-31T11:11:53.307Z,15.50
2019-03-31T11:13:26.114Z,14.53
2019-03-31T11:14:58.966Z,13.40
2019-03-31T11:16:31.627Z,13.90
2019-03-31T11:18:04.446Z,14.33
2019-03-31T11:19:37.261Z,14.37
2019-03-31T11:21:16.416Z,14.87
2019-03-31T11:23:08.732Z,13.57
2019-03-31T11:24:41.395Z,14.87
2019-03-31T11:26:14.211Z,16.67
2019-03-31T11:27:46.893Z,18.17
2019-03-31T11:29:19.713Z,15.93
2019-03-31T11:30:52.599Z,13.53
2019-03-31T11:32:25.400Z,12.17
2019-03-31T11:33:58.193Z,12.50
2019-03-31T11:35:30.892Z,13.07
2019-03-31T11:37:13.540Z,14.30
2019-03-31T11:38:38.357Z,13.97
2019-03-31T11:40:11.292Z,14.93
2019-03-31T11:41:44.027Z,14.37
2019-03-31T11:43:16.844Z,16.03
2019-03-31T11:44:49.609Z,14.03
2019-03-31T11:46:22.415Z,13.80
2019-03-31T11:47:55.237Z,14.57
2019-03-31T11:49:28.059Z,14.17
2019-03-31T11:51:00.849Z,15.63
2019-03-31T11:52:33.530Z,14.10
2019-03-31T11:54:06.412Z,13.63
2019-03-31T11:55:39.226Z,14.07
2019-03-31T11:57:11.943Z,14.40
2019-03-31T11:58:44.802Z,13.43
2019-03-31T12:00:18.826Z,13.40
2019-03-31T12:01:51.633Z,13.47
2019-03-31T12:03:24.476Z,11.90
2019-03-31T12:04:57.289Z,14.03
2019-03-31T12:06:30.058Z,12.43
2019-03-31T12:08:02.884Z,11.73
2019-03-31T12:09:35.683Z,10.80
2019-03-31T12:11:08.489Z,12.50
2019-03-31T12:12:41.272Z,12.50
2019-03-31T12:14:59.769Z,14.80
2019-03-31T12:16:48.681Z,13.50
2019-03-31T12:18:21.457Z,12.30
2019-03-31T12:19:54.362Z,12.83
2019-03-31T12:21:27.293Z,12.37
2019-03-31T12:23:00.143Z,12.53
2019-03-31T12:24:32.912Z,11.63
2019-03-31T12:26:05.835Z,13.57
2019-03-31T12:27:42.849Z,13.30
2019-03-31T12:29:15.736Z,13.83
2019-03-31T12:30:48.682Z,13.23
2019-03-31T12:32:21.390Z,12.93
2019-03-31T12:33:54.186Z,12.30
2019-03-31T12:35:27.015Z,12.03
2019-03-31T12:36:59.936Z,13.80
2019-03-31T12:38:32.676Z,13.33
2019-03-31T12:40:05.972Z,13.97
2019-03-31T12:41:38.839Z,13.17
2019-03-31T12:43:13.866Z,13.50
2019-03-31T12:44:46.692Z,13.50
2019-03-31T12:46:19.391Z,14.03
2019-03-31T12:47:52.181Z,13.93
2019-03-31T12:49:25.185Z,13.10
2019-03-31T12:50:57.977Z,13.67
2019-03-31T12:52:30.719Z,14.13
2019-03-31T12:54:03.401Z,13.73
2019-03-31T12:55:36.151Z,12.83
2019-03-31T12:57:09.012Z,13.50
2019-03-31T12:58:41.815Z,12.77
2019-03-31T13:00:14.678Z,11.97
2019-03-31T13:01:49.914Z,14.27
2019-03-31T13:03:22.701Z,14.37
2019-03-31T13:04:55.505Z,14.33
2019-03-31T13:06:28.183Z,14.00
2019-03-31T13:08:03.412Z,13.83
2019-03-31T13:09:36.281Z,13.57
2019-03-31T13:11:09.127Z,12.90
2019-03-31T13:12:42.022Z,13.17
2019-03-31T13:14:14.845Z,12.37
2019-03-31T13:15:47.599Z,13.80
2019-03-31T13:17:20.294Z,13.63
2019-03-31T13:18:53.327Z,13.80
2019-03-31T13:20:26.181Z,14.20
2019-03-31T13:22:01.318Z,13.40
2019-03-31T13:23:34.153Z,13.97
2019-03-31T13:25:06.971Z,15.13
2019-03-31T13:26:39.771Z,14.67
2019-03-31T13:28:12.458Z,15.03
2019-03-31T13:29:45.235Z,14.23
2019-03-31T13:31:18.072Z,13.50
2019-03-31T13:32:50.786Z,13.20
2019-03-31T13:34:23.666Z,12.83
2019-03-31T13:35:56.518Z,12.77
2019-03-31T13:37:29.327Z,12.40
2019-03-31T13:39:02.213Z,12.37
2019-03-31T13:40:35.251Z,12.10
2019-03-31T13:42:07.984Z,11.50
2019-03-31T13:43:40.984Z,12.20
2019-03-31T13:45:14.142Z,12.10
2019-03-31T13:46:46.998Z,12.53
2019-03-31T13:48:19.842Z,13.10
2019-03-31T13:49:52.733Z,12.87
2019-03-31T13:51:25.618Z,12.50
2019-03-31T13:52:58.335Z,12.93
2019-03-31T13:54:31.175Z,12.47
2019-03-31T13:56:04.029Z,12.17
2019-03-31T13:57:38.018Z,11.83
2019-03-31T13:59:11.675Z,11.73
2019-03-31T14:00:44.542Z,12.43
2019-03-31T14:02:17.301Z,12.87
2019-03-31T14:03:50.027Z,13.03
2019-03-31T14:05:22.787Z,12.60
2019-03-31T14:06:55.617Z,11.90
2019-03-31T14:08:28.427Z,12.00
2019-03-31T14:10:01.120Z,12.60
2019-03-31T14:11:34.042Z,11.83
2019-03-31T14:13:06.857Z,11.07
2019-03-31T14:14:39.721Z,12.33
2019-03-31T14:16:12.421Z,12.20
2019-03-31T14:17:45.282Z,11.77
2019-03-31T14:19:18.100Z,12.17
2019-03-31T14:20:50.961Z,12.23
2019-03-31T14:22:23.801Z,12.70
2019-03-31T14:23:56.709Z,12.73
2019-03-31T14:25:29.437Z,11.93
2019-03-31T14:27:02.109Z,12.37
2019-03-31T14:28:34.968Z,12.87
2019-03-31T14:30:08.335Z,12.47
2019-03-31T14:31:41.185Z,12.77
2019-03-31T14:33:13.997Z,12.83
2019-03-31T14:34:46.838Z,13.43
2019-03-31T14:36:19.645Z,13.07
2019-03-31T14:37:52.377Z,12.00
2019-03-31T14:39:25.069Z,11.40
2019-03-31T14:40:58.015Z,12.47
2019-03-31T14:42:30.838Z,11.80
2019-03-31T14:44:04.793Z,11.43
2019-03-31T14:45:37.880Z,11.77
2019-03-31T14:47:10.702Z,10.50
2019-03-31T14:48:43.514Z,10.63
2019-03-31T14:50:28.987Z,11.53
2019-03-31T14:52:01.798Z,12.20
2019-03-31T14:53:34.671Z,11.90
2019-03-31T14:55:07.418Z,11.93
2019-03-31T14:56:40.222Z,11.40
2019-03-31T14:58:13.133Z,11.57
2019-03-31T14:59:46.014Z,11.53
2019-03-31T15:01:21.246Z,11.20
2019-03-31T15:02:53.625Z,11.60
2019-03-31T15:04:26.491Z,11.10
2019-03-31T15:05:59.207Z,12.43
2019-03-31T15:07:32.025Z,12.80
2019-03-31T15:09:06.983Z,12.57
2019-03-31T15:10:39.871Z,12.10
2019-03-31T15:12:12.744Z,11.10
2019-03-31T15:13:45.517Z,12.30
2019-03-31T15:15:18.380Z,14.00
2019-03-31T15:16:51.212Z,14.17
2019-03-31T15:18:23.988Z,14.17
2019-03-31T15:19:56.678Z,14.53
2019-03-31T15:21:29.534Z,14.07
2019-03-31T15:23:02.424Z,14.20
2019-03-31T15:24:35.174Z,15.20
2019-03-31T15:26:08.039Z,14.63
2019-03-31T15:27:40.840Z,15.27
2019-03-31T15:29:13.643Z,15.67
2019-03-31T15:30:46.632Z,15.20
2019-03-31T15:32:19.512Z,15.90
2019-03-31T15:33:52.306Z,20.07
2019-03-31T15:35:26.381Z,21.30
2019-03-31T15:36:59.575Z,21.87
2019-03-31T15:38:32.384Z,20.53
2019-03-31T15:40:06.100Z,21.57
2019-03-31T15:41:38.984Z,21.67
2019-03-31T15:43:14.847Z,20.90
2019-03-31T15:44:50.383Z,20.50
2019-03-31T15:46:24.807Z,20.63
2019-03-31T15:47:57.774Z,22.67
2019-03-31T15:49:30.589Z,23.50
2019-03-31T15:51:03.247Z,24.17
2019-03-31T15:52:36.170Z,24.77
2019-03-31T15:54:09.103Z,26.10
2019-03-31T15:55:41.906Z,27.37
2019-03-31T15:57:14.704Z,26.40
2019-03-31T15:58:47.572Z,26.90
2019-03-31T16:00:20.901Z,27.30
2019-03-31T16:01:53.708Z,27.27
2019-03-31T16:03:26.593Z,24.80
2019-03-31T16:04:59.376Z,24.53
2019-03-31T16:06:32.175Z,24.17
2019-03-31T16:08:04.802Z,22.87
2019-03-31T16:09:37.099Z,23.40
2019-03-31T16:11:09.407Z,23.70
2019-03-31T16:12:41.716Z,27.13
2019-03-31T16:14:13.946Z,25.10
2019-03-31T16:15:46.198Z,25.53
2019-03-31T16:17:18.632Z,22.93
2019-03-31T16:18:50.878Z,23.23
2019-03-31T16:20:23.202Z,22.85
2019-03-31T16:21:55.479Z,22.03
2019-03-31T16:23:27.745Z,21.43
2019-03-31T16:25:00.695Z,23.30
2019-03-31T16:26:33.001Z,22.40
2019-03-31T16:28:05.379Z,21.73
2019-03-31T16:29:37.561Z,22.02
2019-03-31T16:31:09.785Z,21.97
2019-03-31T16:32:42.098Z,23.73
2019-03-31T16:34:14.273Z,26.17
2019-03-31T16:35:46.436Z,28.87
2019-03-31T16:37:18.671Z,31.07
2019-03-31T16:38:50.905Z,32.63
2019-03-31T16:40:23.029Z,33.90
2019-03-31T16:41:55.365Z,34.53
2019-03-31T16:43:27.508Z,34.23
2019-03-31T16:44:59.728Z,33.67
2019-03-31T16:46:31.877Z,33.20
2019-03-31T16:48:04.193Z,33.30
2019-03-31T16:49:36.298Z,34.92
2019-03-31T16:51:08.632Z,33.38
2019-03-31T16:52:40.967Z,34.13
2019-03-31T16:54:13.198Z,34.35
2019-03-31T16:55:45.497Z,34.30
2019-03-31T16:57:17.763Z,34.25
2019-03-31T16:58:50.016Z,34.27
2019-03-31T17:00:22.258Z,33.88
2019-03-31T17:01:54.576Z,36.88
2019-03-31T17:03:26.893Z,37.87
2019-03-31T17:04:59.285Z,41.30
2019-03-31T17:06:31.584Z,37.50
2019-03-31T17:08:03.840Z,37.08
2019-03-31T17:09:36.170Z,36.25
2019-03-31T17:11:08.417Z,36.53
2019-03-31T17:12:40.779Z,36.80
2019-03-31T17:14:13.065Z,35.88
2019-03-31T17:15:45.328Z,36.65
2019-03-31T17:17:17.478Z,36.20
2019-03-31T17:18:49.753Z,36.88
2019-03-31T17:20:21.997Z,36.58
2019-03-31T17:21:54.286Z,37.63
2019-03-31T17:23:26.588Z,37.05
2019-03-31T17:24:58.867Z,37.20
2019-03-31T17:26:31.160Z,35.98
2019-03-31T17:28:03.415Z,38.25
2019-03-31T17:29:35.604Z,38.15
2019-03-31T17:31:07.773Z,38.48
2019-03-31T17:32:40.086Z,36.88
2019-03-31T17:34:12.398Z,36.73
2019-03-31T17:35:44.647Z,35.88
2019-03-31T17:37:16.951Z,36.65
2019-03-31T17:38:49.214Z,36.53
2019-03-31T17:40:21.325Z,35.80
2019-03-31T17:41:53.602Z,35.83
2019-03-31T17:43:25.867Z,35.05
2019-03-31T17:44:58.141Z,35.88
2019-03-31T17:46:30.365Z,35.60
2019-03-31T17:48:02.549Z,35.15
2019-03-31T17:49:34.759Z,34.50
2019-03-31T17:51:07.083Z,33.18
2019-03-31T17:52:39.344Z,32.60
2019-03-31T17:54:11.581Z,30.60
2019-03-31T17:55:43.775Z,32.65
2019-03-31T17:57:15.996Z,32.30
2019-03-31T17:58:48.270Z,31.57
2019-03-31T18:00:21.774Z,31.50
2019-03-31T18:01:54.129Z,30.97
2019-03-31T18:03:26.401Z,31.07
2019-03-31T18:04:58.672Z,31.70
2019-03-31T18:06:30.991Z,30.32
2019-03-31T18:08:03.286Z,29.48
2019-03-31T18:09:35.559Z,29.25
2019-03-31T18:11:07.781Z,28.87
2019-03-31T18:12:40.071Z,30.55
2019-03-31T18:14:12.373Z,29.85
2019-03-31T18:15:44.670Z,29.05
2019-03-31T18:17:16.945Z,28.57
2019-03-31T18:18:49.342Z,28.40
2019-03-31T18:20:21.644Z,27.95
2019-03-31T18:21:53.925Z,28.47
2019-03-31T18:23:26.202Z,27.95
2019-03-31T18:24:58.459Z,27.07
2019-03-31T18:26:30.704Z,27.85
2019-03-31T18:28:03.008Z,26.57
2019-03-31T18:29:35.171Z,26.65
2019-03-31T18:31:07.505Z,26.30
2019-03-31T18:32:39.852Z,25.20
2019-03-31T18:34:12.080Z,25.57
2019-03-31T18:35:44.380Z,25.12
2019-03-31T18:37:16.661Z,23.77
2019-03-31T18:38:48.927Z,23.85
2019-03-31T18:40:34.262Z,22.87
2019-03-31T18:41:55.225Z,22.82
2019-03-31T18:43:27.578Z,21.97
2019-03-31T18:44:59.980Z,21.77
2019-03-31T18:46:32.265Z,21.93
2019-03-31T18:48:04.534Z,21.00
2019-03-31T18:49:36.826Z,21.40
2019-03-31T18:51:09.176Z,20.55
2019-03-31T18:52:41.494Z,20.50
2019-03-31T18:54:36.101Z,20.92
2019-03-31T18:56:33.728Z,20.55
2019-03-31T18:58:27.043Z,19.73
2019-03-31T19:00:24.594Z,19.27
2019-03-31T19:02:24.999Z,19.17
2019-03-31T19:04:19.695Z,19.95
2019-03-31T19:06:10.304Z,18.05
2019-03-31T19:07:54.975Z,19.45
2019-03-31T19:09:58.613Z,19.90
2019-03-31T19:11:53.210Z,18.40
2019-03-31T19:13:35.933Z,18.42
2019-03-31T19:15:27.675Z,17.80
2019-03-31T19:17:28.777Z,18.85
2019-03-31T19:19:17.835Z,18.12
2019-03-31T19:21:10.918Z,17.60
2019-03-31T19:22:52.118Z,18.32
2019-03-31T19:24:34.651Z,17.98
2019-03-31T19:26:26.436Z,18.15
2019-03-31T19:28:10.834Z,18.37
2019-03-31T19:29:54.956Z,17.70
2019-03-31T19:31:59.001Z,17.37
2019-03-31T19:33:50.814Z,16.97
2019-03-31T19:35:41.190Z,17.23
2019-03-31T19:37:35.506Z,16.97
2019-03-31T19:39:26.197Z,17.00
2019-03-31T19:41:17.915Z,16.00
2019-03-31T19:43:12.700Z,16.52
2019-03-31T19:45:03.149Z,16.95
2019-03-31T19:46:44.323Z,15.72
2019-03-31T19:48:41.946Z,16.85
2019-03-31T19:50:31.694Z,16.62
2019-03-31T19:52:23.456Z,16.52
2019-03-31T19:54:07.400Z,16.67
2019-03-31T19:55:46.453Z,16.23
2019-03-31T19:57:40.813Z,16.15
2019-03-31T19:59:30.597Z,16.37
2019-03-31T20:01:15.466Z,15.63
2019-03-31T20:03:06.204Z,16.05
2019-03-31T20:05:01.740Z,15.83
2019-03-31T20:06:42.534Z,16.02
2019-03-31T20:08:34.290Z,15.60
2019-03-31T20:10:34.241Z,15.72
2019-03-31T20:12:27.948Z,16.37
2019-03-31T20:14:18.268Z,15.65
2019-03-31T20:16:19.279Z,14.70
2019-03-31T20:18:09.682Z,15.83
2019-03-31T20:20:01.447Z,15.45